YPGV/GOV METAR and TAF weather

Enter ICAO airport designator
Station Type Date Time Source
YPGV METAR 2018/12/11 22:00 UTC NOAA

YPGV 112200Z AUTO 31009KT 9999 // SCT015 BKN022 OVC110 28/25 Q1005


Station Type Date Time Source
YPGV Decoded METAR 2018/12/11 22:00 UTC NOAA

Station name not available
Dec 11, 2018 - 05:00 PM EST / 2018.12.11 2200 UTC
Wind: from the NW (310 degrees) at 10 MPH (9 KT):0
Visibility: greater than 7 mile(s):0
Sky conditions: overcast
Temperature: 82 F (28 C)
Dew Point: 77 F (25 C)
Relative Humidity: 83%
Pressure (altimeter): 29.68 in. Hg (1005 hPa)
ob: YPGV 112200Z AUTO 31009KT 9999 // SCT015 BKN022 OVC110 28/25 Q1005
cycle: 22

Station Type Date Time Source
YPGV TAF 2018/12/11 20:00 UTC NOAA

TAF YPGV 111845Z 1120/1208 29014KT 8000 RA SCT010 BKN020
FM112300 31016G26KT 9999 -SHRA BKN020
TEMPO 1120/1208 VRB25G40KT 1000 TSRA BKN005 SCT020CB


Example: see airport list